00:51
Airports
History
Links
Donate
Help keep this website running!
PayPal
Bitcoin
This page is community maintained. The information is intended for PC simulator navigation or reference.
Always use approved charts for navigation.
SBJR
Jacarepagua
Jacarepagua (SBJR)
Rio de Janeiro, Rio de Janeiro, Brazil (22775)
(C)
Lat/Lng:22° 59' 16" S / 43° 22' 13" W
-22.987778 / -43.370277
Elevation:10'ft / 3mMSL
ID / ICAO:SBJR
Runways:1
Longest:02-20
Concrete 901m / 2,957ft
Controlled:Yes
METAR00:00 GMT 2017-09-22
Altimeter: 30.09
Visibility: 6.2 statute miles
Wind: 0 knots (from 000°)
Temp: 19°c / 66°f
Humidity: 93.9%

METAR: SBJR 220000Z 00000KT CAVOK 19/18 Q1019

(Powered by phpweather)
Runway 02 / 20
Dimensions:901.2 x 12.8m 2957' x 42'ft
Surface:Concrete
Edge Lights:Medium intensity
Runway 02 [A]Runway 20 [B]
Heading:359°TH 179°TH
Lat:
Lng:
22° 59' 30.57"S
43° 22' 12.72"W
22° 59' 1.43"S
43° 22' 13.27"W
ALS:MALSMALS
User Notes and Comments
22° 59' 16" S / 43° 22' 13" W
Distance To
Airport ID:
Nearby Airports
4 Clube Ceu 2.1 NM
SDIN WSW 251°
(C) Campo Delio Jardim de Mattos 7.8 NM
SBAF ( WX ) N 353°
(C) Santos-Dumont 14.2 NM
SBRJ ( WX ) ENE 67°
(C) Galeao Antonio Carlos Jombim 14.8 NM
SBGL ( WX ) NE 34°
(U) AEROCLUBE NOVA IGUACU 17.7 NM
SDNY NNW 341°
(C) SANTA CRUZ 22.5 NM
SBSC ( WX ) W 279°
4 Marambaia 32.8 NM
SDMR W 260°
VFR Chart
Flight Planning at SkyVector.com